createdAt,value
2023-03-10T00:01:27.748Z,1.70
2023-03-10T00:03:57.751Z,1.70
2023-03-10T00:06:28.269Z,1.70
2023-03-10T00:08:57.732Z,1.70
2023-03-10T00:11:27.480Z,1.60
2023-03-10T00:14:00.769Z,1.60
2023-03-10T00:16:31.060Z,1.60
2023-03-10T00:18:59.751Z,1.60
2023-03-10T00:21:31.462Z,1.50
2023-03-10T00:24:01.531Z,1.50
2023-03-10T00:26:31.615Z,1.50
2023-03-10T00:29:09.585Z,1.50
2023-03-10T00:31:37.771Z,1.40
2023-03-10T00:34:06.778Z,1.40
2023-03-10T00:36:35.099Z,1.40
2023-03-10T00:39:04.927Z,1.40
2023-03-10T00:41:39.731Z,1.50
2023-03-10T00:44:10.241Z,1.50
2023-03-10T00:46:40.812Z,1.40
2023-03-10T00:49:17.048Z,1.40
2023-03-10T00:51:46.756Z,1.40
2023-03-10T00:54:15.745Z,1.40
2023-03-10T00:56:45.258Z,1.40
2023-03-10T00:59:13.933Z,1.40
2023-03-10T01:01:43.236Z,1.40
2023-03-10T01:04:15.874Z,1.50
2023-03-10T01:06:47.577Z,1.50
2023-03-10T01:09:17.962Z,1.50
2023-03-10T01:11:49.249Z,1.50
2023-03-10T01:14:19.496Z,1.50
2023-03-10T01:16:47.697Z,1.50
2023-03-10T01:19:15.891Z,1.60
2023-03-10T01:21:45.383Z,1.50
2023-03-10T01:24:16.381Z,1.60
2023-03-10T01:26:45.079Z,1.50
2023-03-10T01:29:17.336Z,1.60
2023-03-10T01:31:45.656Z,1.50
2023-03-10T01:34:13.832Z,1.50
2023-03-10T01:36:43.768Z,1.50
2023-03-10T01:39:12.592Z,1.50
2023-03-10T01:41:45.369Z,1.50
2023-03-10T01:44:17.916Z,1.50
2023-03-10T01:46:53.044Z,1.50
2023-03-10T01:49:36.310Z,1.50
2023-03-10T01:52:09.947Z,1.40
2023-03-10T01:54:50.056Z,1.40
2023-03-10T01:57:22.980Z,1.40
2023-03-10T01:59:55.752Z,1.40
2023-03-10T02:02:26.856Z,1.40
2023-03-10T02:04:56.543Z,1.40
2023-03-10T02:07:30.008Z,1.40
2023-03-10T02:09:58.357Z,1.40
2023-03-10T02:12:26.522Z,1.40
2023-03-10T02:15:02.158Z,1.40
2023-03-10T02:17:30.788Z,1.40
2023-03-10T02:20:09.782Z,1.40
2023-03-10T02:22:39.163Z,1.40
2023-03-10T02:25:20.257Z,1.40
2023-03-10T02:27:50.736Z,1.40
2023-03-10T02:30:23.682Z,1.40
2023-03-10T02:32:55.833Z,1.40
2023-03-10T02:35:25.284Z,1.30
2023-03-10T02:37:59.788Z,1.40
2023-03-10T02:40:35.430Z,1.40
2023-03-10T02:43:18.210Z,1.40
2023-03-10T02:45:51.666Z,1.40
2023-03-10T02:48:28.683Z,1.40
2023-03-10T02:50:58.773Z,1.30
2023-03-10T02:53:29.813Z,1.30
2023-03-10T02:55:59.859Z,1.30
2023-03-10T02:58:33.772Z,1.30
2023-03-10T03:01:05.060Z,1.30
2023-03-10T03:03:36.828Z,1.30
2023-03-10T03:06:06.784Z,1.30
2023-03-10T03:08:35.803Z,1.30
2023-03-10T03:11:07.091Z,1.30
2023-03-10T03:13:37.835Z,1.30
2023-03-10T03:16:08.332Z,1.30
2023-03-10T03:18:37.558Z,1.40
2023-03-10T03:21:11.565Z,1.40
2023-03-10T03:23:40.909Z,1.40
2023-03-10T03:26:20.941Z,1.30
2023-03-10T03:28:52.313Z,1.30
2023-03-10T03:31:28.185Z,1.30
2023-03-10T03:37:41.728Z,1.40
2023-03-10T03:40:13.414Z,1.40
2023-03-10T03:42:49.827Z,1.30
2023-03-10T03:45:21.827Z,1.40
2023-03-10T03:47:52.819Z,1.40
2023-03-10T03:50:22.636Z,1.40
2023-03-10T03:52:52.804Z,1.40
2023-03-10T03:55:23.976Z,1.50
2023-03-10T03:57:54.778Z,1.40
2023-03-10T04:00:26.301Z,1.50
2023-03-10T04:03:03.987Z,1.40
2023-03-10T04:05:33.823Z,1.40
2023-03-10T04:08:02.782Z,1.40
2023-03-10T04:10:31.915Z,1.40
2023-03-10T04:13:04.508Z,1.40
2023-03-10T04:15:36.905Z,1.40
2023-03-10T04:18:05.393Z,1.40
2023-03-10T04:20:34.671Z,1.50
2023-03-10T04:23:02.916Z,1.50
2023-03-10T04:25:35.811Z,1.40
2023-03-10T04:28:05.802Z,1.50
2023-03-10T04:30:35.431Z,1.40
2023-03-10T04:33:05.843Z,1.40
2023-03-10T04:35:36.026Z,1.40
2023-03-10T04:38:04.853Z,1.40
2023-03-10T04:40:33.819Z,1.40
2023-03-10T04:43:03.828Z,1.50
2023-03-10T04:45:33.824Z,1.50
2023-03-10T04:48:03.534Z,1.50
2023-03-10T04:50:33.654Z,1.50
2023-03-10T04:53:02.410Z,1.50
2023-03-10T04:55:32.372Z,1.50
2023-03-10T04:58:02.704Z,1.50
2023-03-10T05:00:31.004Z,1.60
2023-03-10T05:03:00.142Z,1.70
2023-03-10T05:05:29.827Z,1.60
2023-03-10T05:07:57.936Z,1.60
2023-03-10T05:10:26.468Z,1.60
2023-03-10T05:12:56.827Z,1.60
2023-03-10T05:15:25.582Z,1.60
2023-03-10T05:17:54.845Z,1.60
2023-03-10T05:20:23.199Z,1.60
2023-03-10T05:22:53.420Z,1.60
2023-03-10T05:25:24.813Z,1.60
2023-03-10T05:27:53.493Z,1.60
2023-03-10T05:30:23.506Z,1.60
2023-03-10T05:32:55.617Z,1.60
2023-03-10T05:35:23.943Z,1.70
2023-03-10T05:37:54.167Z,1.70
2023-03-10T05:40:23.785Z,1.70
2023-03-10T05:42:52.839Z,1.70
2023-03-10T05:45:23.088Z,1.70
2023-03-10T05:47:53.089Z,1.70
2023-03-10T05:50:21.402Z,1.70
2023-03-10T05:52:49.630Z,1.70
2023-03-10T05:55:21.446Z,1.80
2023-03-10T05:57:49.978Z,1.80
2023-03-10T06:00:19.029Z,1.80
2023-03-10T06:02:58.862Z,1.80
2023-03-10T06:05:28.996Z,1.80
2023-03-10T06:07:57.130Z,1.80
2023-03-10T06:10:27.866Z,1.90
2023-03-10T06:12:56.459Z,1.90
2023-03-10T06:15:24.908Z,1.90
2023-03-10T06:17:53.071Z,1.90
2023-03-10T06:20:24.531Z,1.90
2023-03-10T06:22:53.346Z,2.00
2023-03-10T06:25:22.100Z,2.00
2023-03-10T06:27:51.552Z,2.00
2023-03-10T06:30:21.016Z,2.00
2023-03-10T06:32:53.033Z,2.10
2023-03-10T06:35:21.506Z,2.10
2023-03-10T06:37:49.683Z,2.20
2023-03-10T06:40:17.930Z,2.20
2023-03-10T06:42:46.222Z,2.20
2023-03-10T06:45:20.756Z,2.20
2023-03-10T06:47:49.912Z,2.30
2023-03-10T06:50:20.698Z,2.30
2023-03-10T06:52:49.028Z,2.40
2023-03-10T06:55:17.567Z,2.40
2023-03-10T06:57:48.496Z,2.40
2023-03-10T07:00:19.510Z,2.50
2023-03-10T07:02:47.731Z,2.50
2023-03-10T07:05:16.132Z,2.60
2023-03-10T07:07:44.425Z,2.60
2023-03-10T07:10:13.376Z,2.70
2023-03-10T07:12:43.382Z,2.70
2023-03-10T07:15:12.658Z,2.70
2023-03-10T07:17:42.922Z,2.70
2023-03-10T07:20:12.805Z,2.70
2023-03-10T07:22:45.650Z,2.80
2023-03-10T07:25:13.959Z,2.80
2023-03-10T07:27:42.406Z,2.90
2023-03-10T07:30:11.936Z,2.80
2023-03-10T07:32:45.278Z,2.90
2023-03-10T07:35:13.797Z,2.90
2023-03-10T07:37:42.346Z,2.90
2023-03-10T07:40:12.115Z,2.90
2023-03-10T07:42:40.373Z,3.00
2023-03-10T07:45:13.639Z,3.00
2023-03-10T07:47:43.137Z,3.10
2023-03-10T07:50:12.895Z,3.10
2023-03-10T07:52:41.038Z,3.10
2023-03-10T07:55:09.982Z,3.30
2023-03-10T07:57:42.028Z,3.40
2023-03-10T08:00:11.461Z,3.40
2023-03-10T08:02:43.657Z,3.50
2023-03-10T08:05:14.903Z,3.60
2023-03-10T08:07:44.676Z,3.60
2023-03-10T08:10:14.013Z,3.70
2023-03-10T08:12:42.146Z,3.70
2023-03-10T08:15:13.347Z,3.80
2023-03-10T08:17:45.893Z,3.90
2023-03-10T08:20:14.439Z,3.90
2023-03-10T08:22:42.612Z,3.90
2023-03-10T08:25:12.721Z,4.00
2023-03-10T08:27:41.583Z,4.00
2023-03-10T08:30:13.307Z,4.10
2023-03-10T08:32:41.660Z,4.10
2023-03-10T08:35:12.111Z,4.20
2023-03-10T08:37:43.144Z,4.20
2023-03-10T08:40:14.687Z,4.20
2023-03-10T08:42:45.516Z,4.10
2023-03-10T08:45:15.227Z,4.20
2023-03-10T08:47:43.395Z,4.20
2023-03-10T08:50:14.354Z,4.10
2023-03-10T08:52:42.671Z,4.10
2023-03-10T08:55:12.791Z,4.10
2023-03-10T08:57:42.082Z,4.10
2023-03-10T09:00:12.574Z,4.20
2023-03-10T09:02:43.444Z,4.20
2023-03-10T09:05:13.321Z,4.30
2023-03-10T09:07:41.658Z,4.30
2023-03-10T09:10:10.504Z,4.40
2023-03-10T09:12:39.426Z,4.50
2023-03-10T09:15:08.682Z,4.50
2023-03-10T09:17:39.394Z,4.60
2023-03-10T09:20:09.963Z,4.60
2023-03-10T09:22:39.607Z,4.60
2023-03-10T09:25:08.692Z,4.70
2023-03-10T09:27:40.997Z,4.70
2023-03-10T09:30:10.303Z,4.80
2023-03-10T09:32:38.496Z,4.80
2023-03-10T09:35:07.778Z,4.90
2023-03-10T09:37:36.088Z,4.90
2023-03-10T09:40:14.206Z,5.00
2023-03-10T09:42:44.153Z,5.00
2023-03-10T09:45:24.827Z,5.00
2023-03-10T09:48:16.459Z,5.00
2023-03-10T09:50:46.726Z,5.00
2023-03-10T09:53:41.935Z,5.00
2023-03-10T09:56:18.286Z,5.00
2023-03-10T09:58:49.917Z,5.00
2023-03-10T10:01:21.384Z,5.00
2023-03-10T10:03:53.618Z,5.00
2023-03-10T10:06:28.153Z,5.00
2023-03-10T10:09:05.077Z,5.00
2023-03-10T10:11:36.540Z,5.00
2023-03-10T10:14:38.441Z,5.10
2023-03-10T10:17:17.740Z,5.10
2023-03-10T10:19:48.408Z,5.20
2023-03-10T10:22:26.030Z,5.20
2023-03-10T10:25:04.314Z,5.30
2023-03-10T10:27:34.581Z,5.40
2023-03-10T10:30:27.611Z,5.50
2023-03-10T10:32:59.041Z,5.50
2023-03-10T10:35:30.168Z,5.60
2023-03-10T10:38:03.349Z,5.70
2023-03-10T10:40:34.431Z,5.80
2023-03-10T10:43:07.856Z,5.80
2023-03-10T10:45:37.428Z,6.00
2023-03-10T10:48:07.451Z,6.10
2023-03-10T10:50:37.955Z,6.20
2023-03-10T10:53:24.246Z,6.30
2023-03-10T10:56:02.969Z,6.30
2023-03-10T10:58:35.003Z,6.40
2023-03-10T11:01:06.396Z,6.50
2023-03-10T11:03:36.948Z,6.50
2023-03-10T11:06:15.910Z,6.60
2023-03-10T11:08:50.794Z,6.70
2023-03-10T11:11:32.480Z,6.80
2023-03-10T11:14:24.503Z,7.00
2023-03-10T11:17:02.950Z,7.10
2023-03-10T11:19:36.493Z,7.20
2023-03-10T11:22:18.989Z,7.20
2023-03-10T11:24:53.979Z,7.30
2023-03-10T11:27:31.678Z,7.30
2023-03-10T11:30:10.431Z,7.40
2023-03-10T11:32:48.916Z,7.50
2023-03-10T11:35:29.371Z,7.70
2023-03-10T11:38:06.328Z,7.80
2023-03-10T11:40:44.017Z,8.00
2023-03-10T11:43:21.933Z,8.10
2023-03-10T11:45:54.445Z,8.20
2023-03-10T11:48:51.159Z,8.30
2023-03-10T11:51:27.493Z,8.40
2023-03-10T11:53:58.982Z,8.50
2023-03-10T11:56:28.985Z,8.60
2023-03-10T11:59:01.992Z,8.70
2023-03-10T12:01:35.976Z,8.80
2023-03-10T12:04:13.627Z,8.90
2023-03-10T12:06:48.405Z,8.90
2023-03-10T12:09:27.422Z,9.00
2023-03-10T12:11:58.105Z,9.20
2023-03-10T12:14:27.976Z,9.40
2023-03-10T12:16:58.057Z,9.60
2023-03-10T12:19:29.500Z,9.80
2023-03-10T12:22:25.846Z,9.90
2023-03-10T12:24:54.246Z,10.10
2023-03-10T12:27:23.820Z,10.20
2023-03-10T12:29:52.011Z,10.10
2023-03-10T12:32:48.191Z,10.30
2023-03-10T12:35:36.663Z,10.30
2023-03-10T12:38:33.359Z,10.40
2023-03-10T12:41:02.194Z,10.40
2023-03-10T12:44:04.140Z,10.50
2023-03-10T12:46:46.955Z,10.40
2023-03-10T12:49:29.190Z,10.40
2023-03-10T12:52:17.079Z,10.40
2023-03-10T12:54:57.707Z,10.30
2023-03-10T12:57:32.176Z,10.30
2023-03-10T13:00:08.008Z,10.40
2023-03-10T13:02:46.031Z,10.50
2023-03-10T13:05:24.330Z,10.60
2023-03-10T13:07:56.069Z,10.70
2023-03-10T13:10:26.450Z,10.70
2023-03-10T13:12:59.826Z,10.80
2023-03-10T13:15:31.302Z,11.00
2023-03-10T13:18:18.405Z,11.10
2023-03-10T13:20:49.041Z,11.40
2023-03-10T13:23:24.071Z,11.60
2023-03-10T13:25:56.487Z,11.80
2023-03-10T13:28:25.525Z,11.80
2023-03-10T13:31:07.261Z,11.90
2023-03-10T13:33:50.260Z,11.90
2023-03-10T13:36:35.063Z,11.90
2023-03-10T13:39:05.471Z,11.90
2023-03-10T13:41:38.032Z,11.80
2023-03-10T13:44:06.222Z,11.80
2023-03-10T13:46:35.320Z,11.80
2023-03-10T13:49:07.102Z,11.70
2023-03-10T13:51:38.067Z,11.70
2023-03-10T13:54:24.143Z,11.70
2023-03-10T13:56:54.955Z,11.70
2023-03-10T13:59:26.044Z,11.70
2023-03-10T14:01:59.944Z,11.70
2023-03-10T14:04:44.360Z,11.80
2023-03-10T14:07:18.396Z,11.80
2023-03-10T14:09:48.244Z,11.80
2023-03-10T14:12:35.382Z,11.80
2023-03-10T14:15:13.039Z,11.80
2023-03-10T14:17:42.063Z,11.80
2023-03-10T14:20:11.864Z,11.80
2023-03-10T14:22:43.465Z,11.80
2023-03-10T14:25:15.560Z,11.80
2023-03-10T14:27:49.482Z,11.80
2023-03-10T14:30:24.129Z,11.70
2023-03-10T14:32:52.837Z,11.70
2023-03-10T14:35:25.770Z,11.60
2023-03-10T14:37:57.092Z,11.60
2023-03-10T14:40:26.648Z,11.50
2023-03-10T14:42:58.846Z,11.50
2023-03-10T14:45:30.549Z,11.50
2023-03-10T14:48:01.383Z,11.50
2023-03-10T14:50:33.243Z,11.50
2023-03-10T14:53:02.795Z,11.50
2023-03-10T14:55:32.059Z,11.50
2023-03-10T14:58:04.080Z,11.50
2023-03-10T15:00:32.818Z,11.40
2023-03-10T15:03:01.777Z,11.50
2023-03-10T15:05:46.812Z,11.50
2023-03-10T15:08:19.016Z,11.50
2023-03-10T15:10:50.735Z,11.60
2023-03-10T15:13:21.080Z,11.60
2023-03-10T15:15:49.792Z,11.40
2023-03-10T15:18:21.089Z,11.40
2023-03-10T15:20:52.413Z,11.30
2023-03-10T15:23:22.626Z,11.40
2023-03-10T15:25:51.969Z,11.40
2023-03-10T15:28:20.226Z,11.40
2023-03-10T15:30:48.599Z,11.30
2023-03-10T15:33:21.080Z,11.30
2023-03-10T15:35:50.022Z,11.30
2023-03-10T15:38:18.361Z,11.30
2023-03-10T15:40:49.112Z,11.20
2023-03-10T15:43:17.316Z,11.20
2023-03-10T15:45:53.913Z,11.20
2023-03-10T15:48:22.089Z,11.20
2023-03-10T15:50:51.122Z,11.10
2023-03-10T15:53:19.924Z,11.10
2023-03-10T15:55:52.301Z,11.10
2023-03-10T15:58:22.014Z,11.10
2023-03-10T16:00:51.260Z,11.00
2023-03-10T16:03:19.387Z,11.00
2023-03-10T16:05:49.311Z,10.90
2023-03-10T16:08:19.129Z,10.90
2023-03-10T16:10:56.151Z,10.90
2023-03-10T16:13:25.065Z,10.90
2023-03-10T16:15:53.889Z,10.90
2023-03-10T16:18:25.050Z,10.90
2023-03-10T16:21:00.125Z,10.90
2023-03-10T16:23:29.318Z,11.00
2023-03-10T16:26:07.045Z,10.90
2023-03-10T16:28:35.897Z,10.90
2023-03-10T16:31:05.235Z,10.80
2023-03-10T16:33:34.849Z,10.80
2023-03-10T16:36:04.880Z,10.80
2023-03-10T16:38:37.010Z,10.70
2023-03-10T16:41:07.776Z,10.70
2023-03-10T16:43:35.899Z,10.70
2023-03-10T16:46:10.440Z,10.70
2023-03-10T16:48:42.077Z,10.70
2023-03-10T16:51:23.637Z,10.60
2023-03-10T16:53:52.755Z,10.60
2023-03-10T16:56:25.135Z,10.50
2023-03-10T16:58:55.107Z,10.50
2023-03-10T17:01:24.964Z,10.50
2023-03-10T17:03:55.336Z,10.50
2023-03-10T17:06:26.185Z,10.40
2023-03-10T17:08:55.343Z,10.30
2023-03-10T17:11:28.142Z,10.30
2023-03-10T17:13:58.458Z,10.30
2023-03-10T17:16:30.153Z,10.20
2023-03-10T17:19:00.326Z,10.10
2023-03-10T17:21:32.752Z,10.10
2023-03-10T17:24:05.047Z,10.10
2023-03-10T17:26:34.643Z,10.10
2023-03-10T17:29:02.783Z,10.10
2023-03-10T17:31:32.269Z,10.00
2023-03-10T17:34:05.384Z,10.00
2023-03-10T17:36:34.204Z,9.90
2023-03-10T17:39:07.161Z,9.90
2023-03-10T17:41:37.751Z,9.80
2023-03-10T17:44:05.923Z,9.80
2023-03-10T17:46:35.967Z,9.70
2023-03-10T17:49:06.274Z,9.70
2023-03-10T17:51:34.407Z,9.70
2023-03-10T17:54:03.145Z,9.60
2023-03-10T17:56:31.403Z,9.60
2023-03-10T17:59:01.007Z,9.50
2023-03-10T18:01:33.900Z,9.50
2023-03-10T18:04:02.052Z,9.50
2023-03-10T18:06:33.033Z,9.40
2023-03-10T18:09:04.625Z,9.50
2023-03-10T18:11:33.950Z,9.40
2023-03-10T18:14:04.217Z,9.40
2023-03-10T18:16:34.311Z,9.40
2023-03-10T18:19:02.912Z,9.30
2023-03-10T18:21:31.563Z,9.20
2023-03-10T18:23:59.842Z,9.20
2023-03-10T18:26:30.718Z,9.10
2023-03-10T18:28:59.344Z,9.00
2023-03-10T18:31:30.579Z,9.00
2023-03-10T18:33:59.190Z,8.90
2023-03-10T18:36:28.242Z,8.90
2023-03-10T18:38:58.594Z,8.90
2023-03-10T18:41:29.477Z,8.80
2023-03-10T18:43:57.911Z,8.80
2023-03-10T18:46:26.174Z,8.80
2023-03-10T18:48:59.404Z,8.80
2023-03-10T18:51:28.953Z,8.70
2023-03-10T18:53:57.665Z,8.70
2023-03-10T18:56:28.963Z,8.70
2023-03-10T18:58:58.362Z,8.60
2023-03-10T19:01:29.416Z,8.60
2023-03-10T19:03:59.167Z,8.60
2023-03-10T19:06:36.248Z,8.50
2023-03-10T19:09:09.175Z,8.50
2023-03-10T19:11:38.503Z,8.50
2023-03-10T19:14:13.806Z,8.50
2023-03-10T19:16:42.807Z,8.50
2023-03-10T19:19:13.408Z,8.60
2023-03-10T19:21:41.562Z,8.50
2023-03-10T19:24:09.970Z,8.50
2023-03-10T19:26:40.242Z,8.50
2023-03-10T19:29:08.398Z,8.50
2023-03-10T19:31:37.258Z,8.50
2023-03-10T19:34:05.540Z,8.50
2023-03-10T19:36:36.178Z,8.40
2023-03-10T19:39:04.541Z,8.50
2023-03-10T19:41:32.800Z,8.50
2023-03-10T19:44:01.278Z,8.50
2023-03-10T19:46:29.589Z,8.50
2023-03-10T19:48:57.862Z,8.40
2023-03-10T19:51:28.098Z,8.40
2023-03-10T19:53:58.603Z,8.50
2023-03-10T19:56:27.255Z,8.50
2023-03-10T19:58:55.420Z,8.50
2023-03-10T20:01:26.239Z,8.50
2023-03-10T20:03:56.644Z,8.50
2023-03-10T20:06:25.324Z,8.50
2023-03-10T20:08:54.553Z,8.50
2023-03-10T20:11:26.036Z,8.50
2023-03-10T20:13:54.949Z,8.50
2023-03-10T20:16:24.285Z,8.50
2023-03-10T20:18:52.694Z,8.60
2023-03-10T20:21:20.853Z,8.60
2023-03-10T20:23:54.248Z,8.60
2023-03-10T20:26:25.201Z,8.60
2023-03-10T20:28:53.720Z,8.60
2023-03-10T20:31:24.022Z,8.60
2023-03-10T20:33:52.961Z,8.60
2023-03-10T20:36:21.303Z,8.70
2023-03-10T20:38:49.520Z,8.70
2023-03-10T20:41:22.225Z,8.80
2023-03-10T20:43:53.445Z,8.70
2023-03-10T20:46:22.926Z,8.80
2023-03-10T20:48:51.640Z,8.70
2023-03-10T20:51:19.912Z,8.70
2023-03-10T20:53:48.328Z,8.70
2023-03-10T20:56:16.718Z,8.80
2023-03-10T20:58:45.021Z,8.60
2023-03-10T21:01:19.099Z,8.60
2023-03-10T21:03:47.602Z,8.60
2023-03-10T21:06:16.152Z,8.50
2023-03-10T21:08:45.285Z,8.50
2023-03-10T21:11:14.258Z,8.50
2023-03-10T21:13:45.221Z,8.50
2023-03-10T21:16:13.432Z,8.50
2023-03-10T21:18:43.033Z,8.40
2023-03-10T21:21:13.643Z,8.50
2023-03-10T21:23:45.463Z,8.50
2023-03-10T21:26:15.072Z,8.50
2023-03-10T21:28:43.903Z,8.50
2023-03-10T21:31:12.527Z,8.50
2023-03-10T21:33:42.817Z,8.50
2023-03-10T21:36:14.755Z,8.40
2023-03-10T21:38:43.348Z,8.40
2023-03-10T21:41:13.354Z,8.40
2023-03-10T21:43:41.532Z,8.30
2023-03-10T21:46:09.975Z,8.30
2023-03-10T21:48:41.556Z,8.30
2023-03-10T21:51:14.252Z,8.30
2023-03-10T21:53:42.749Z,8.30
2023-03-10T21:56:11.037Z,8.30
2023-03-10T21:58:43.251Z,8.30
2023-03-10T22:01:14.813Z,8.30
2023-03-10T22:03:44.454Z,8.30
2023-03-10T22:06:14.074Z,8.30
2023-03-10T22:08:45.750Z,8.30
2023-03-10T22:11:15.878Z,8.30
2023-03-10T22:13:51.889Z,8.30
2023-03-10T22:16:20.894Z,8.30
2023-03-10T22:18:50.260Z,8.30
2023-03-10T22:21:20.741Z,8.20
2023-03-10T22:23:54.106Z,8.30
2023-03-10T22:26:23.946Z,8.20
2023-03-10T22:28:52.891Z,8.20
2023-03-10T22:31:27.955Z,8.30
2023-03-10T22:33:57.091Z,8.30
2023-03-10T22:36:27.907Z,8.20
2023-03-10T22:38:56.855Z,8.20
2023-03-10T22:41:26.250Z,8.20
2023-03-10T22:43:58.490Z,8.20
2023-03-10T22:46:28.620Z,8.20
2023-03-10T22:48:57.589Z,8.20
2023-03-10T22:51:28.057Z,8.20
2023-03-10T22:53:59.180Z,8.20
2023-03-10T22:56:28.220Z,8.20
2023-03-10T22:58:58.023Z,8.20
2023-03-10T23:01:26.996Z,8.10
2023-03-10T23:03:56.154Z,8.10
2023-03-10T23:06:29.258Z,8.10
2023-03-10T23:08:59.064Z,8.10
2023-03-10T23:11:28.577Z,8.20
2023-03-10T23:13:59.527Z,8.20
2023-03-10T23:16:28.525Z,8.20
2023-03-10T23:18:58.617Z,8.20
2023-03-10T23:21:29.289Z,8.20
2023-03-10T23:23:58.658Z,8.30
2023-03-10T23:26:28.552Z,8.30
2023-03-10T23:28:58.149Z,8.30
2023-03-10T23:31:27.707Z,8.40
2023-03-10T23:33:56.591Z,8.50
2023-03-10T23:36:26.141Z,8.60
2023-03-10T23:38:57.619Z,8.60
2023-03-10T23:41:27.010Z,8.70
2023-03-10T23:43:56.385Z,8.80
2023-03-10T23:46:25.897Z,8.80
2023-03-10T23:48:54.895Z,8.80
2023-03-10T23:51:23.712Z,8.80
2023-03-10T23:53:52.700Z,8.80
2023-03-10T23:56:23.025Z,8.80
2023-03-10T23:58:53.174Z,8.90
